sensor_id;sensor_type;location;lat;lon;timestamp;temperature;humidity
42095;DHT22;27753;55.724;37.612;2022-07-29T00:00:00;18.50;91.30
42095;DHT22;27753;55.724;37.612;2022-07-29T00:02:28;18.30;90.70
42095;DHT22;27753;55.724;37.612;2022-07-29T00:04:55;18.20;90.90
42095;DHT22;27753;55.724;37.612;2022-07-29T00:07:21;18.10;91.10
42095;DHT22;27753;55.724;37.612;2022-07-29T00:09:47;18.00;90.90
42095;DHT22;27753;55.724;37.612;2022-07-29T00:12:12;17.90;91.20
42095;DHT22;27753;55.724;37.612;2022-07-29T00:14:38;17.80;91.40
42095;DHT22;27753;55.724;37.612;2022-07-29T00:17:04;17.70;91.60
42095;DHT22;27753;55.724;37.612;2022-07-29T00:19:30;17.60;91.80
42095;DHT22;27753;55.724;37.612;2022-07-29T00:21:56;17.50;91.90
42095;DHT22;27753;55.724;37.612;2022-07-29T00:24:21;17.50;92.20
42095;DHT22;27753;55.724;37.612;2022-07-29T00:26:47;17.40;92.20
42095;DHT22;27753;55.724;37.612;2022-07-29T00:29:14;17.40;92.20
42095;DHT22;27753;55.724;37.612;2022-07-29T00:31:40;17.30;92.30
42095;DHT22;27753;55.724;37.612;2022-07-29T00:34:06;17.30;92.40
42095;DHT22;27753;55.724;37.612;2022-07-29T00:36:52;17.20;92.50
42095;DHT22;27753;55.724;37.612;2022-07-29T00:39:17;17.20;92.60
42095;DHT22;27753;55.724;37.612;2022-07-29T00:41:43;17.20;92.60
42095;DHT22;27753;55.724;37.612;2022-07-29T00:44:09;17.20;92.70
42095;DHT22;27753;55.724;37.612;2022-07-29T00:46:35;17.10;92.70
42095;DHT22;27753;55.724;37.612;2022-07-29T00:49:01;17.10;92.70
42095;DHT22;27753;55.724;37.612;2022-07-29T00:51:27;17.10;92.70
42095;DHT22;27753;55.724;37.612;2022-07-29T00:53:53;17.10;92.60
42095;DHT22;27753;55.724;37.612;2022-07-29T00:56:19;17.10;92.50
42095;DHT22;27753;55.724;37.612;2022-07-29T00:58:46;17.00;92.40
42095;DHT22;27753;55.724;37.612;2022-07-29T01:01:12;17.00;92.40
42095;DHT22;27753;55.724;37.612;2022-07-29T01:03:38;16.90;92.20
42095;DHT22;27753;55.724;37.612;2022-07-29T01:06:04;16.90;92.20
42095;DHT22;27753;55.724;37.612;2022-07-29T01:08:31;16.90;92.20
42095;DHT22;27753;55.724;37.612;2022-07-29T01:10:59;16.90;92.20
42095;DHT22;27753;55.724;37.612;2022-07-29T01:13:25;16.80;92.20
42095;DHT22;27753;55.724;37.612;2022-07-29T01:15:59;16.80;92.20
42095;DHT22;27753;55.724;37.612;2022-07-29T01:18:34;16.80;92.20
42095;DHT22;27753;55.724;37.612;2022-07-29T01:23:59;16.70;92.10
42095;DHT22;27753;55.724;37.612;2022-07-29T01:27:02;16.70;92.10
42095;DHT22;27753;55.724;37.612;2022-07-29T01:29:37;16.60;92.20
42095;DHT22;27753;55.724;37.612;2022-07-29T01:32:10;16.60;92.10
42095;DHT22;27753;55.724;37.612;2022-07-29T01:37:20;16.60;91.90
42095;DHT22;27753;55.724;37.612;2022-07-29T01:39:49;16.60;92.10
42095;DHT22;27753;55.724;37.612;2022-07-29T01:42:37;16.60;92.10
42095;DHT22;27753;55.724;37.612;2022-07-29T01:45:23;16.60;92.00
42095;DHT22;27753;55.724;37.612;2022-07-29T01:48:13;16.60;92.10
42095;DHT22;27753;55.724;37.612;2022-07-29T01:50:54;16.50;92.30
42095;DHT22;27753;55.724;37.612;2022-07-29T01:53:42;16.50;92.50
42095;DHT22;27753;55.724;37.612;2022-07-29T01:56:10;16.60;92.80
42095;DHT22;27753;55.724;37.612;2022-07-29T01:58:40;16.50;93.10
42095;DHT22;27753;55.724;37.612;2022-07-29T02:01:09;16.60;93.40
42095;DHT22;27753;55.724;37.612;2022-07-29T02:03:37;16.50;93.70
42095;DHT22;27753;55.724;37.612;2022-07-29T02:06:05;16.60;94.30
42095;DHT22;27753;55.724;37.612;2022-07-29T02:08:33;16.60;94.10
42095;DHT22;27753;55.724;37.612;2022-07-29T02:11:00;16.70;93.60
42095;DHT22;27753;55.724;37.612;2022-07-29T02:13:27;16.60;93.60
42095;DHT22;27753;55.724;37.612;2022-07-29T02:15:55;16.70;93.70
42095;DHT22;27753;55.724;37.612;2022-07-29T02:18:25;16.70;93.90
42095;DHT22;27753;55.724;37.612;2022-07-29T02:20:55;16.70;93.90
42095;DHT22;27753;55.724;37.612;2022-07-29T02:23:23;16.70;94.00
42095;DHT22;27753;55.724;37.612;2022-07-29T02:25:51;16.70;94.10
42095;DHT22;27753;55.724;37.612;2022-07-29T02:28:19;16.70;94.50
42095;DHT22;27753;55.724;37.612;2022-07-29T02:30:45;16.70;94.30
42095;DHT22;27753;55.724;37.612;2022-07-29T02:33:14;16.80;94.40
42095;DHT22;27753;55.724;37.612;2022-07-29T02:35:42;16.80;94.40
42095;DHT22;27753;55.724;37.612;2022-07-29T02:38:13;16.90;94.30
42095;DHT22;27753;55.724;37.612;2022-07-29T02:41:00;16.90;94.50
42095;DHT22;27753;55.724;37.612;2022-07-29T02:43:27;16.90;94.20
42095;DHT22;27753;55.724;37.612;2022-07-29T02:45:55;17.00;94.10
42095;DHT22;27753;55.724;37.612;2022-07-29T02:48:27;17.00;93.90
42095;DHT22;27753;55.724;37.612;2022-07-29T02:51:05;17.00;93.80
42095;DHT22;27753;55.724;37.612;2022-07-29T02:53:33;17.10;93.90
42095;DHT22;27753;55.724;37.612;2022-07-29T02:56:04;17.20;94.00
42095;DHT22;27753;55.724;37.612;2022-07-29T02:58:40;17.30;93.20
42095;DHT22;27753;55.724;37.612;2022-07-29T03:01:16;17.40;93.10
42095;DHT22;27753;55.724;37.612;2022-07-29T03:03:44;17.40;93.00
42095;DHT22;27753;55.724;37.612;2022-07-29T03:06:13;17.50;92.90
42095;DHT22;27753;55.724;37.612;2022-07-29T03:08:40;17.60;92.60
42095;DHT22;27753;55.724;37.612;2022-07-29T03:11:08;17.60;92.40
42095;DHT22;27753;55.724;37.612;2022-07-29T03:13:35;17.70;92.20
42095;DHT22;27753;55.724;37.612;2022-07-29T03:16:01;17.70;92.00
42095;DHT22;27753;55.724;37.612;2022-07-29T03:18:28;17.70;91.80
42095;DHT22;27753;55.724;37.612;2022-07-29T03:20:54;17.70;91.70
42095;DHT22;27753;55.724;37.612;2022-07-29T03:23:21;17.70;91.90
42095;DHT22;27753;55.724;37.612;2022-07-29T03:25:52;17.70;91.80
42095;DHT22;27753;55.724;37.612;2022-07-29T03:28:18;17.70;91.80
42095;DHT22;27753;55.724;37.612;2022-07-29T03:30:44;17.80;91.60
42095;DHT22;27753;55.724;37.612;2022-07-29T03:33:10;17.80;91.50
42095;DHT22;27753;55.724;37.612;2022-07-29T03:35:35;17.80;91.60
42095;DHT22;27753;55.724;37.612;2022-07-29T03:38:01;17.90;91.40
42095;DHT22;27753;55.724;37.612;2022-07-29T03:40:38;17.90;91.20
42095;DHT22;27753;55.724;37.612;2022-07-29T03:43:05;18.00;91.20
42095;DHT22;27753;55.724;37.612;2022-07-29T03:45:32;18.00;91.30
42095;DHT22;27753;55.724;37.612;2022-07-29T03:48:07;18.00;90.40
42095;DHT22;27753;55.724;37.612;2022-07-29T03:50:34;18.10;90.50
42095;DHT22;27753;55.724;37.612;2022-07-29T03:53:01;18.00;90.50
42095;DHT22;27753;55.724;37.612;2022-07-29T03:55:30;18.10;90.30
42095;DHT22;27753;55.724;37.612;2022-07-29T03:57:58;18.20;89.70
42095;DHT22;27753;55.724;37.612;2022-07-29T04:00:26;18.20;89.80
42095;DHT22;27753;55.724;37.612;2022-07-29T04:02:52;18.30;89.00
42095;DHT22;27753;55.724;37.612;2022-07-29T04:05:18;18.40;88.80
42095;DHT22;27753;55.724;37.612;2022-07-29T04:07:46;18.40;88.70
42095;DHT22;27753;55.724;37.612;2022-07-29T04:10:12;18.50;88.10
42095;DHT22;27753;55.724;37.612;2022-07-29T04:12:38;18.50;87.80
42095;DHT22;27753;55.724;37.612;2022-07-29T04:15:04;18.50;88.30
42095;DHT22;27753;55.724;37.612;2022-07-29T04:17:30;18.60;87.20
42095;DHT22;27753;55.724;37.612;2022-07-29T04:19:56;18.70;87.10
42095;DHT22;27753;55.724;37.612;2022-07-29T04:22:22;18.80;87.50
42095;DHT22;27753;55.724;37.612;2022-07-29T04:24:47;18.90;87.70
42095;DHT22;27753;55.724;37.612;2022-07-29T04:27:13;19.10;88.20
42095;DHT22;27753;55.724;37.612;2022-07-29T04:29:39;19.20;85.90
42095;DHT22;27753;55.724;37.612;2022-07-29T04:32:05;19.30;85.30
42095;DHT22;27753;55.724;37.612;2022-07-29T04:34:31;19.30;86.10
42095;DHT22;27753;55.724;37.612;2022-07-29T04:36:57;19.30;86.60
42095;DHT22;27753;55.724;37.612;2022-07-29T04:39:23;19.30;86.30
42095;DHT22;27753;55.724;37.612;2022-07-29T04:41:49;19.50;86.10
42095;DHT22;27753;55.724;37.612;2022-07-29T04:44:15;19.60;85.70
42095;DHT22;27753;55.724;37.612;2022-07-29T04:46:41;19.60;84.10
42095;DHT22;27753;55.724;37.612;2022-07-29T04:49:07;19.60;83.50
42095;DHT22;27753;55.724;37.612;2022-07-29T04:51:33;19.60;84.10
42095;DHT22;27753;55.724;37.612;2022-07-29T04:53:59;19.60;85.20
42095;DHT22;27753;55.724;37.612;2022-07-29T04:56:25;19.70;84.70
42095;DHT22;27753;55.724;37.612;2022-07-29T04:58:51;19.80;84.30
42095;DHT22;27753;55.724;37.612;2022-07-29T05:01:17;19.90;83.00
42095;DHT22;27753;55.724;37.612;2022-07-29T05:03:43;20.10;83.50
42095;DHT22;27753;55.724;37.612;2022-07-29T05:06:09;21.20;82.40
42095;DHT22;27753;55.724;37.612;2022-07-29T05:08:35;21.50;79.70
42095;DHT22;27753;55.724;37.612;2022-07-29T05:11:00;22.50;76.00
42095;DHT22;27753;55.724;37.612;2022-07-29T05:13:26;23.40;72.40
42095;DHT22;27753;55.724;37.612;2022-07-29T05:15:52;24.20;69.50
42095;DHT22;27753;55.724;37.612;2022-07-29T05:18:18;24.70;65.40
42095;DHT22;27753;55.724;37.612;2022-07-29T05:20:44;25.00;64.70
42095;DHT22;27753;55.724;37.612;2022-07-29T05:23:09;25.00;64.60
42095;DHT22;27753;55.724;37.612;2022-07-29T05:25:38;25.40;63.50
42095;DHT22;27753;55.724;37.612;2022-07-29T05:28:04;26.00;62.80
42095;DHT22;27753;55.724;37.612;2022-07-29T05:30:30;26.60;60.50
42095;DHT22;27753;55.724;37.612;2022-07-29T05:35:29;27.20;58.80
42095;DHT22;27753;55.724;37.612;2022-07-29T05:37:55;27.60;60.30
42095;DHT22;27753;55.724;37.612;2022-07-29T05:40:20;27.80;57.00
42095;DHT22;27753;55.724;37.612;2022-07-29T05:42:46;27.50;56.70
42095;DHT22;27753;55.724;37.612;2022-07-29T05:45:12;27.30;57.20
42095;DHT22;27753;55.724;37.612;2022-07-29T05:47:38;27.10;56.10
42095;DHT22;27753;55.724;37.612;2022-07-29T05:50:04;27.00;56.90
42095;DHT22;27753;55.724;37.612;2022-07-29T05:52:30;27.40;57.30
42095;DHT22;27753;55.724;37.612;2022-07-29T05:54:56;27.30;55.90
42095;DHT22;27753;55.724;37.612;2022-07-29T05:57:23;26.80;56.20
42095;DHT22;27753;55.724;37.612;2022-07-29T05:59:50;26.20;57.70
42095;DHT22;27753;55.724;37.612;2022-07-29T06:02:16;27.00;56.70
42095;DHT22;27753;55.724;37.612;2022-07-29T06:04:43;27.30;56.00
42095;DHT22;27753;55.724;37.612;2022-07-29T06:07:08;28.30;55.30
42095;DHT22;27753;55.724;37.612;2022-07-29T06:09:34;29.90;52.70
42095;DHT22;27753;55.724;37.612;2022-07-29T06:12:00;30.60;50.20
42095;DHT22;27753;55.724;37.612;2022-07-29T06:16:54;30.90;49.70
42095;DHT22;27753;55.724;37.612;2022-07-29T06:19:19;33.10;46.40
42095;DHT22;27753;55.724;37.612;2022-07-29T06:24:13;34.00;43.30
42095;DHT22;27753;55.724;37.612;2022-07-29T06:26:40;34.50;43.80
42095;DHT22;27753;55.724;37.612;2022-07-29T06:29:07;34.40;42.10
42095;DHT22;27753;55.724;37.612;2022-07-29T06:31:33;34.90;42.30
42095;DHT22;27753;55.724;37.612;2022-07-29T06:33:59;34.50;41.40
42095;DHT22;27753;55.724;37.612;2022-07-29T06:36:25;33.30;43.30
42095;DHT22;27753;55.724;37.612;2022-07-29T06:38:50;32.80;43.30
42095;DHT22;27753;55.724;37.612;2022-07-29T06:41:16;32.50;44.10
42095;DHT22;27753;55.724;37.612;2022-07-29T06:43:45;32.50;43.30
42095;DHT22;27753;55.724;37.612;2022-07-29T06:46:13;32.80;42.90
42095;DHT22;27753;55.724;37.612;2022-07-29T06:48:46;33.70;41.90
42095;DHT22;27753;55.724;37.612;2022-07-29T06:51:15;34.70;40.70
42095;DHT22;27753;55.724;37.612;2022-07-29T06:53:42;35.60;39.70
42095;DHT22;27753;55.724;37.612;2022-07-29T06:56:08;36.60;38.70
42095;DHT22;27753;55.724;37.612;2022-07-29T06:58:35;37.20;36.90
42095;DHT22;27753;55.724;37.612;2022-07-29T07:01:03;36.90;36.90
42095;DHT22;27753;55.724;37.612;2022-07-29T07:03:29;37.60;36.20
42095;DHT22;27753;55.724;37.612;2022-07-29T07:05:55;38.40;35.30
42095;DHT22;27753;55.724;37.612;2022-07-29T07:08:21;39.10;34.40
42095;DHT22;27753;55.724;37.612;2022-07-29T07:13:14;38.10;33.80
42095;DHT22;27753;55.724;37.612;2022-07-29T07:15:43;37.90;34.10
42095;DHT22;27753;55.724;37.612;2022-07-29T07:18:08;37.50;34.10
42095;DHT22;27753;55.724;37.612;2022-07-29T07:20:34;36.80;35.70
42095;DHT22;27753;55.724;37.612;2022-07-29T07:23:01;36.20;36.10
42095;DHT22;27753;55.724;37.612;2022-07-29T07:25:26;34.80;36.20
42095;DHT22;27753;55.724;37.612;2022-07-29T07:27:52;34.70;37.70
42095;DHT22;27753;55.724;37.612;2022-07-29T07:30:18;35.30;37.40
42095;DHT22;27753;55.724;37.612;2022-07-29T07:32:44;35.40;36.50
42095;DHT22;27753;55.724;37.612;2022-07-29T07:35:10;34.30;36.60
42095;DHT22;27753;55.724;37.612;2022-07-29T07:37:37;33.60;38.70
42095;DHT22;27753;55.724;37.612;2022-07-29T07:40:04;34.80;37.90
42095;DHT22;27753;55.724;37.612;2022-07-29T07:42:30;36.50;36.80
42095;DHT22;27753;55.724;37.612;2022-07-29T07:44:55;37.50;36.60
42095;DHT22;27753;55.724;37.612;2022-07-29T07:47:21;37.50;36.00
42095;DHT22;27753;55.724;37.612;2022-07-29T07:49:51;38.20;34.30
42095;DHT22;27753;55.724;37.612;2022-07-29T07:52:18;38.80;32.90
42095;DHT22;27753;55.724;37.612;2022-07-29T07:54:45;39.10;32.70
42095;DHT22;27753;55.724;37.612;2022-07-29T07:57:11;38.30;32.10
42095;DHT22;27753;55.724;37.612;2022-07-29T07:59:38;36.50;33.60
42095;DHT22;27753;55.724;37.612;2022-07-29T08:02:04;34.00;36.50
42095;DHT22;27753;55.724;37.612;2022-07-29T08:04:30;34.20;37.40
42095;DHT22;27753;55.724;37.612;2022-07-29T08:06:56;35.60;36.30
42095;DHT22;27753;55.724;37.612;2022-07-29T08:09:23;36.10;34.30
42095;DHT22;27753;55.724;37.612;2022-07-29T08:11:49;36.10;34.60
42095;DHT22;27753;55.724;37.612;2022-07-29T08:14:15;35.40;35.10
42095;DHT22;27753;55.724;37.612;2022-07-29T08:16:41;35.60;35.80
42095;DHT22;27753;55.724;37.612;2022-07-29T08:19:08;36.40;34.70
42095;DHT22;27753;55.724;37.612;2022-07-29T08:21:34;35.90;33.80
42095;DHT22;27753;55.724;37.612;2022-07-29T08:24:00;34.60;34.90
42095;DHT22;27753;55.724;37.612;2022-07-29T08:26:45;34.40;35.70
42095;DHT22;27753;55.724;37.612;2022-07-29T08:29:11;35.40;34.90
42095;DHT22;27753;55.724;37.612;2022-07-29T08:31:38;36.30;33.30
42095;DHT22;27753;55.724;37.612;2022-07-29T08:34:04;36.70;33.10
42095;DHT22;27753;55.724;37.612;2022-07-29T08:36:30;37.90;33.30
42095;DHT22;27753;55.724;37.612;2022-07-29T08:38:57;38.40;31.90
42095;DHT22;27753;55.724;37.612;2022-07-29T08:41:23;38.70;30.80
42095;DHT22;27753;55.724;37.612;2022-07-29T08:43:50;39.20;30.70
42095;DHT22;27753;55.724;37.612;2022-07-29T08:46:16;39.30;30.60
42095;DHT22;27753;55.724;37.612;2022-07-29T08:48:42;37.80;31.00
42095;DHT22;27753;55.724;37.612;2022-07-29T08:51:14;37.80;32.30
42095;DHT22;27753;55.724;37.612;2022-07-29T08:53:42;39.80;32.00
42095;DHT22;27753;55.724;37.612;2022-07-29T09:01:06;41.60;30.50
42095;DHT22;27753;55.724;37.612;2022-07-29T09:03:34;43.20;28.70
42095;DHT22;27753;55.724;37.612;2022-07-29T09:08:28;44.10;28.60
42095;DHT22;27753;55.724;37.612;2022-07-29T09:10:54;43.80;28.00
42095;DHT22;27753;55.724;37.612;2022-07-29T09:13:23;43.30;28.60
42095;DHT22;27753;55.724;37.612;2022-07-29T09:15:50;43.40;28.40
42095;DHT22;27753;55.724;37.612;2022-07-29T09:21:04;40.50;29.50
42095;DHT22;27753;55.724;37.612;2022-07-29T09:26:44;38.80;31.50
42095;DHT22;27753;55.724;37.612;2022-07-29T09:29:16;38.20;30.60
42095;DHT22;27753;55.724;37.612;2022-07-29T09:31:44;35.50;31.80
42095;DHT22;27753;55.724;37.612;2022-07-29T09:34:15;33.20;34.80
42095;DHT22;27753;55.724;37.612;2022-07-29T09:36:43;31.80;37.50
42095;DHT22;27753;55.724;37.612;2022-07-29T09:39:10;31.60;38.70
42095;DHT22;27753;55.724;37.612;2022-07-29T09:41:49;32.90;37.80
42095;DHT22;27753;55.724;37.612;2022-07-29T09:44:15;34.60;36.70
42095;DHT22;27753;55.724;37.612;2022-07-29T09:47:02;36.20;34.40
42095;DHT22;27753;55.724;37.612;2022-07-29T09:49:36;37.60;33.50
42095;DHT22;27753;55.724;37.612;2022-07-29T09:52:15;36.90;32.00
42095;DHT22;27753;55.724;37.612;2022-07-29T09:54:41;36.00;32.90
42095;DHT22;27753;55.724;37.612;2022-07-29T09:57:08;35.80;33.20
42095;DHT22;27753;55.724;37.612;2022-07-29T09:59:38;36.40;33.30
42095;DHT22;27753;55.724;37.612;2022-07-29T10:02:13;36.50;32.80
42095;DHT22;27753;55.724;37.612;2022-07-29T10:04:42;36.10;33.40
42095;DHT22;27753;55.724;37.612;2022-07-29T10:07:09;35.10;34.10
42095;DHT22;27753;55.724;37.612;2022-07-29T10:09:35;33.80;35.30
42095;DHT22;27753;55.724;37.612;2022-07-29T10:14:32;35.40;34.80
42095;DHT22;27753;55.724;37.612;2022-07-29T10:16:59;36.20;33.70
42095;DHT22;27753;55.724;37.612;2022-07-29T10:19:28;36.80;33.20
42095;DHT22;27753;55.724;37.612;2022-07-29T10:21:56;37.00;33.00
42095;DHT22;27753;55.724;37.612;2022-07-29T10:24:24;37.20;32.20
42095;DHT22;27753;55.724;37.612;2022-07-29T10:26:52;37.40;32.70
42095;DHT22;27753;55.724;37.612;2022-07-29T10:29:19;38.00;31.70
42095;DHT22;27753;55.724;37.612;2022-07-29T10:34:49;38.30;30.70
42095;DHT22;27753;55.724;37.612;2022-07-29T10:43:24;33.50;34.00
42095;DHT22;27753;55.724;37.612;2022-07-29T10:45:58;32.20;35.50
42095;DHT22;27753;55.724;37.612;2022-07-29T10:48:24;31.30;36.90
42095;DHT22;27753;55.724;37.612;2022-07-29T10:50:54;30.40;37.70
42095;DHT22;27753;55.724;37.612;2022-07-29T10:53:25;29.70;38.50
42095;DHT22;27753;55.724;37.612;2022-07-29T10:56:31;28.90;40.00
42095;DHT22;27753;55.724;37.612;2022-07-29T10:59:28;28.40;40.40
42095;DHT22;27753;55.724;37.612;2022-07-29T11:01:56;28.00;40.90
42095;DHT22;27753;55.724;37.612;2022-07-29T11:07:07;27.10;42.50
42095;DHT22;27753;55.724;37.612;2022-07-29T11:09:33;26.70;43.40
42095;DHT22;27753;55.724;37.612;2022-07-29T11:11:59;26.30;43.80
42095;DHT22;27753;55.724;37.612;2022-07-29T11:17:20;25.90;44.20
42095;DHT22;27753;55.724;37.612;2022-07-29T11:19:46;25.80;44.50
42095;DHT22;27753;55.724;37.612;2022-07-29T11:22:34;25.70;43.60
42095;DHT22;27753;55.724;37.612;2022-07-29T11:25:15;25.50;43.60
42095;DHT22;27753;55.724;37.612;2022-07-29T11:27:41;25.50;45.00
42095;DHT22;27753;55.724;37.612;2022-07-29T11:32:40;25.10;45.00
42095;DHT22;27753;55.724;37.612;2022-07-29T11:37:39;25.00;45.20
42095;DHT22;27753;55.724;37.612;2022-07-29T11:45:18;24.80;46.90
42095;DHT22;27753;55.724;37.612;2022-07-29T11:47:53;25.10;46.50
42095;DHT22;27753;55.724;37.612;2022-07-29T11:50:36;25.30;46.50
42095;DHT22;27753;55.724;37.612;2022-07-29T11:53:12;25.50;46.60
42095;DHT22;27753;55.724;37.612;2022-07-29T11:55:43;25.70;46.30
42095;DHT22;27753;55.724;37.612;2022-07-29T11:58:09;25.80;46.80
42095;DHT22;27753;55.724;37.612;2022-07-29T12:00:38;26.00;46.10
42095;DHT22;27753;55.724;37.612;2022-07-29T12:03:07;26.20;45.70
42095;DHT22;27753;55.724;37.612;2022-07-29T12:05:37;26.50;45.30
42095;DHT22;27753;55.724;37.612;2022-07-29T12:10:32;26.40;45.00
42095;DHT22;27753;55.724;37.612;2022-07-29T12:12:58;26.10;46.10
42095;DHT22;27753;55.724;37.612;2022-07-29T12:15:24;26.00;45.70
42095;DHT22;27753;55.724;37.612;2022-07-29T12:17:51;25.80;46.10
42095;DHT22;27753;55.724;37.612;2022-07-29T12:20:26;25.50;46.50
42095;DHT22;27753;55.724;37.612;2022-07-29T12:22:56;25.30;46.90
42095;DHT22;27753;55.724;37.612;2022-07-29T12:25:25;25.30;47.50
42095;DHT22;27753;55.724;37.612;2022-07-29T12:28:04;25.30;48.00
42095;DHT22;27753;55.724;37.612;2022-07-29T12:30:44;25.40;48.00
42095;DHT22;27753;55.724;37.612;2022-07-29T12:33:18;25.40;47.40
42095;DHT22;27753;55.724;37.612;2022-07-29T12:35:47;25.30;47.30
42095;DHT22;27753;55.724;37.612;2022-07-29T12:38:14;25.20;46.70
42095;DHT22;27753;55.724;37.612;2022-07-29T12:40:41;25.20;46.30
42095;DHT22;27753;55.724;37.612;2022-07-29T12:45:40;25.50;46.50
42095;DHT22;27753;55.724;37.612;2022-07-29T12:48:06;25.70;46.50
42095;DHT22;27753;55.724;37.612;2022-07-29T12:50:35;26.00;45.80
42095;DHT22;27753;55.724;37.612;2022-07-29T12:53:12;26.20;44.70
42095;DHT22;27753;55.724;37.612;2022-07-29T12:55:43;26.30;44.40
42095;DHT22;27753;55.724;37.612;2022-07-29T12:58:09;26.20;44.40
42095;DHT22;27753;55.724;37.612;2022-07-29T13:00:35;26.20;45.00
42095;DHT22;27753;55.724;37.612;2022-07-29T13:03:01;26.20;45.10
42095;DHT22;27753;55.724;37.612;2022-07-29T13:05:44;26.30;45.00
42095;DHT22;27753;55.724;37.612;2022-07-29T13:08:13;26.20;44.90
42095;DHT22;27753;55.724;37.612;2022-07-29T13:10:39;26.20;44.90
42095;DHT22;27753;55.724;37.612;2022-07-29T13:13:07;26.20;45.10
42095;DHT22;27753;55.724;37.612;2022-07-29T13:15:38;26.20;45.20
42095;DHT22;27753;55.724;37.612;2022-07-29T13:18:05;26.20;45.90
42095;DHT22;27753;55.724;37.612;2022-07-29T13:20:51;26.10;45.10
42095;DHT22;27753;55.724;37.612;2022-07-29T13:23:17;25.80;45.70
42095;DHT22;27753;55.724;37.612;2022-07-29T13:25:43;25.60;46.30
42095;DHT22;27753;55.724;37.612;2022-07-29T13:28:09;25.40;46.40
42095;DHT22;27753;55.724;37.612;2022-07-29T13:30:34;25.20;46.90
42095;DHT22;27753;55.724;37.612;2022-07-29T13:33:10;25.10;47.80
42095;DHT22;27753;55.724;37.612;2022-07-29T13:35:35;25.00;47.80
42095;DHT22;27753;55.724;37.612;2022-07-29T13:38:01;24.90;48.20
42095;DHT22;27753;55.724;37.612;2022-07-29T13:40:27;24.80;48.60
42095;DHT22;27753;55.724;37.612;2022-07-29T13:42:54;24.80;48.90
42095;DHT22;27753;55.724;37.612;2022-07-29T13:45:20;24.80;48.40
42095;DHT22;27753;55.724;37.612;2022-07-29T13:47:45;24.60;48.80
42095;DHT22;27753;55.724;37.612;2022-07-29T13:50:11;24.50;49.90
42095;DHT22;27753;55.724;37.612;2022-07-29T13:52:37;24.60;49.40
42095;DHT22;27753;55.724;37.612;2022-07-29T13:55:04;25.20;48.80
42095;DHT22;27753;55.724;37.612;2022-07-29T13:57:30;26.20;48.10
42095;DHT22;27753;55.724;37.612;2022-07-29T13:59:56;27.60;46.50
42095;DHT22;27753;55.724;37.612;2022-07-29T14:02:22;27.70;45.50
42095;DHT22;27753;55.724;37.612;2022-07-29T14:04:48;27.10;45.60
42095;DHT22;27753;55.724;37.612;2022-07-29T14:07:14;27.70;46.00
42095;DHT22;27753;55.724;37.612;2022-07-29T14:09:39;28.80;44.70
42095;DHT22;27753;55.724;37.612;2022-07-29T14:12:05;29.60;42.80
42095;DHT22;27753;55.724;37.612;2022-07-29T14:14:31;29.40;42.00
42095;DHT22;27753;55.724;37.612;2022-07-29T14:16:58;28.90;42.40
42095;DHT22;27753;55.724;37.612;2022-07-29T14:19:24;28.00;43.00
42095;DHT22;27753;55.724;37.612;2022-07-29T14:21:50;27.20;44.10
42095;DHT22;27753;55.724;37.612;2022-07-29T14:24:16;26.80;45.90
42095;DHT22;27753;55.724;37.612;2022-07-29T14:26:42;26.70;45.90
42095;DHT22;27753;55.724;37.612;2022-07-29T14:29:08;27.50;46.00
42095;DHT22;27753;55.724;37.612;2022-07-29T14:31:33;28.70;44.00
42095;DHT22;27753;55.724;37.612;2022-07-29T14:33:59;29.60;41.80
42095;DHT22;27753;55.724;37.612;2022-07-29T14:36:25;30.20;40.80
42095;DHT22;27753;55.724;37.612;2022-07-29T14:38:52;29.80;40.70
42095;DHT22;27753;55.724;37.612;2022-07-29T14:41:18;29.00;41.50
42095;DHT22;27753;55.724;37.612;2022-07-29T14:43:44;28.80;42.00
42095;DHT22;27753;55.724;37.612;2022-07-29T14:46:10;28.60;41.70
42095;DHT22;27753;55.724;37.612;2022-07-29T14:48:36;28.00;42.50
42095;DHT22;27753;55.724;37.612;2022-07-29T14:51:01;27.30;43.60
42095;DHT22;27753;55.724;37.612;2022-07-29T14:53:27;26.70;44.90
42095;DHT22;27753;55.724;37.612;2022-07-29T14:55:53;26.50;45.40
42095;DHT22;27753;55.724;37.612;2022-07-29T14:58:19;26.30;45.40
42095;DHT22;27753;55.724;37.612;2022-07-29T15:00:46;26.00;46.20
42095;DHT22;27753;55.724;37.612;2022-07-29T15:03:12;25.70;46.50
42095;DHT22;27753;55.724;37.612;2022-07-29T15:05:38;25.70;46.60
42095;DHT22;27753;55.724;37.612;2022-07-29T15:08:04;25.90;47.20
42095;DHT22;27753;55.724;37.612;2022-07-29T15:10:30;25.70;47.10
42095;DHT22;27753;55.724;37.612;2022-07-29T15:12:58;25.70;47.70
42095;DHT22;27753;55.724;37.612;2022-07-29T15:15:24;25.50;47.90
42095;DHT22;27753;55.724;37.612;2022-07-29T15:17:50;25.30;48.00
42095;DHT22;27753;55.724;37.612;2022-07-29T15:20:16;25.10;48.40
42095;DHT22;27753;55.724;37.612;2022-07-29T15:22:41;25.00;49.00
42095;DHT22;27753;55.724;37.612;2022-07-29T15:25:08;24.80;49.40
42095;DHT22;27753;55.724;37.612;2022-07-29T15:27:34;24.80;49.30
42095;DHT22;27753;55.724;37.612;2022-07-29T15:30:00;24.80;49.50
42095;DHT22;27753;55.724;37.612;2022-07-29T15:32:26;24.80;50.00
42095;DHT22;27753;55.724;37.612;2022-07-29T15:34:52;24.70;50.00
42095;DHT22;27753;55.724;37.612;2022-07-29T15:37:17;24.60;49.80
42095;DHT22;27753;55.724;37.612;2022-07-29T15:39:43;24.60;49.50
42095;DHT22;27753;55.724;37.612;2022-07-29T15:42:09;24.50;49.70
42095;DHT22;27753;55.724;37.612;2022-07-29T15:44:35;24.50;50.00
42095;DHT22;27753;55.724;37.612;2022-07-29T15:47:01;24.50;50.00
42095;DHT22;27753;55.724;37.612;2022-07-29T15:49:35;24.50;50.40
42095;DHT22;27753;55.724;37.612;2022-07-29T15:52:02;24.50;50.80
42095;DHT22;27753;55.724;37.612;2022-07-29T15:54:29;24.50;50.60
42095;DHT22;27753;55.724;37.612;2022-07-29T15:56:55;24.50;50.70
42095;DHT22;27753;55.724;37.612;2022-07-29T15:59:21;24.50;52.70
42095;DHT22;27753;55.724;37.612;2022-07-29T16:01:48;24.30;54.80
42095;DHT22;27753;55.724;37.612;2022-07-29T16:04:14;24.10;56.00
42095;DHT22;27753;55.724;37.612;2022-07-29T16:06:40;23.80;56.60
42095;DHT22;27753;55.724;37.612;2022-07-29T16:09:06;23.50;57.30
42095;DHT22;27753;55.724;37.612;2022-07-29T16:11:32;23.40;58.00
42095;DHT22;27753;55.724;37.612;2022-07-29T16:14:01;23.20;58.70
42095;DHT22;27753;55.724;37.612;2022-07-29T16:16:27;23.00;59.20
42095;DHT22;27753;55.724;37.612;2022-07-29T16:18:53;22.90;59.50
42095;DHT22;27753;55.724;37.612;2022-07-29T16:21:20;22.80;59.40